createdAt,value
2023-01-30T00:01:28.982Z,28.30
2023-01-30T00:03:57.194Z,30.10
2023-01-30T00:06:25.354Z,30.40
2023-01-30T00:08:53.647Z,28.20
2023-01-30T00:11:21.608Z,28.00
2023-01-30T00:13:50.510Z,26.00
2023-01-30T00:16:18.900Z,30.80
2023-01-30T00:18:48.084Z,28.60
2023-01-30T00:21:16.230Z,24.90
2023-01-30T00:23:45.069Z,23.50
2023-01-30T00:26:13.205Z,26.90
2023-01-30T00:28:41.745Z,29.00
2023-01-30T00:31:13.383Z,28.40
2023-01-30T00:33:41.907Z,27.30
2023-01-30T00:36:10.442Z,27.30
2023-01-30T00:38:39.195Z,22.80
2023-01-30T00:41:11.005Z,23.10
2023-01-30T00:43:57.826Z,22.20
2023-01-30T00:46:52.392Z,22.70
2023-01-30T00:49:20.858Z,21.70
2023-01-30T00:51:49.949Z,22.70
2023-01-30T00:54:18.265Z,22.70
2023-01-30T00:56:46.256Z,21.30
2023-01-30T00:59:14.290Z,21.00
2023-01-30T01:01:42.718Z,22.40
2023-01-30T01:04:10.935Z,21.80
2023-01-30T01:06:44.391Z,21.80
2023-01-30T01:09:12.822Z,19.10
2023-01-30T01:11:41.840Z,19.90
2023-01-30T01:14:09.911Z,19.40
2023-01-30T01:16:38.072Z,20.60
2023-01-30T01:19:06.062Z,21.10
2023-01-30T01:21:35.830Z,19.60
2023-01-30T01:24:06.421Z,18.70
2023-01-30T01:26:35.426Z,20.70
2023-01-30T01:29:04.357Z,18.80
2023-01-30T01:31:33.128Z,20.20
2023-01-30T01:34:01.360Z,20.80
2023-01-30T01:36:52.270Z,17.90
2023-01-30T01:39:17.939Z,19.70
2023-01-30T01:41:46.262Z,17.90
2023-01-30T01:44:14.772Z,17.10
2023-01-30T01:46:56.867Z,18.00
2023-01-30T01:49:29.166Z,17.70
2023-01-30T01:52:04.132Z,17.70
2023-01-30T01:54:35.160Z,16.80
2023-01-30T01:57:05.743Z,16.50
2023-01-30T01:59:55.261Z,18.00
2023-01-30T02:02:24.015Z,17.80
2023-01-30T02:05:03.148Z,14.50
2023-01-30T02:07:53.493Z,16.80
2023-01-30T02:10:24.080Z,16.30
2023-01-30T02:12:52.713Z,13.70
2023-01-30T02:15:21.809Z,16.20
2023-01-30T02:17:50.015Z,15.20
2023-01-30T02:20:26.035Z,15.10
2023-01-30T02:23:01.104Z,15.50
2023-01-30T02:25:42.518Z,16.30
2023-01-30T02:28:28.822Z,16.70
2023-01-30T02:31:06.087Z,17.80
2023-01-30T02:33:41.443Z,14.10
2023-01-30T02:36:48.602Z,13.40
2023-01-30T02:39:49.679Z,13.00
2023-01-30T02:42:27.062Z,12.30
2023-01-30T02:44:55.176Z,13.80
2023-01-30T02:47:26.120Z,13.70
2023-01-30T02:50:21.179Z,11.40
2023-01-30T02:52:49.157Z,9.50
2023-01-30T02:55:23.167Z,12.40
2023-01-30T02:57:51.728Z,13.00
2023-01-30T03:00:44.921Z,12.70
2023-01-30T03:03:30.916Z,11.80
2023-01-30T03:06:17.803Z,12.70
2023-01-30T03:09:04.414Z,13.40
2023-01-30T03:11:48.191Z,14.20
2023-01-30T03:14:21.691Z,13.30
2023-01-30T03:16:50.817Z,10.80
2023-01-30T03:19:18.783Z,19.70
2023-01-30T03:21:50.592Z,12.60
2023-01-30T03:24:18.682Z,11.50
2023-01-30T03:27:13.239Z,12.80
2023-01-30T03:29:44.527Z,10.80
2023-01-30T03:32:12.749Z,11.20
2023-01-30T03:34:41.957Z,10.80
2023-01-30T03:37:11.474Z,11.50
2023-01-30T03:39:39.482Z,11.60
2023-01-30T03:42:08.560Z,10.70
2023-01-30T03:44:36.725Z,11.20
2023-01-30T03:47:05.037Z,10.40
2023-01-30T03:49:33.116Z,10.90
2023-01-30T03:52:01.143Z,11.60
2023-01-30T03:54:29.658Z,10.20
2023-01-30T03:56:57.623Z,11.90
2023-01-30T03:59:26.038Z,12.10
2023-01-30T04:02:02.772Z,11.30
2023-01-30T04:04:31.390Z,11.00
2023-01-30T04:06:59.748Z,14.20
2023-01-30T04:09:28.664Z,13.80
2023-01-30T04:11:57.926Z,13.20
2023-01-30T04:14:26.466Z,14.80
2023-01-30T04:17:21.946Z,13.90
2023-01-30T04:20:20.461Z,12.90
2023-01-30T04:22:51.645Z,12.90
2023-01-30T04:25:21.410Z,12.70
2023-01-30T04:27:49.769Z,10.70
2023-01-30T04:30:23.815Z,11.80
2023-01-30T04:33:00.183Z,11.70
2023-01-30T04:35:28.318Z,12.80
2023-01-30T04:37:56.462Z,12.30
2023-01-30T04:40:27.495Z,17.30
2023-01-30T04:42:56.505Z,20.20
2023-01-30T04:45:36.680Z,18.50
2023-01-30T04:48:05.343Z,12.50
2023-01-30T04:50:33.592Z,10.70
2023-01-30T04:53:01.858Z,14.10
2023-01-30T04:55:30.122Z,11.70
2023-01-30T04:57:58.679Z,10.20
2023-01-30T05:00:27.158Z,12.60
2023-01-30T05:03:01.858Z,10.90
2023-01-30T05:05:47.371Z,11.50
2023-01-30T05:08:16.216Z,12.30
2023-01-30T05:10:44.212Z,15.10
2023-01-30T05:13:12.946Z,14.20
2023-01-30T05:15:41.357Z,13.00
2023-01-30T05:18:09.444Z,11.30
2023-01-30T05:20:37.641Z,11.40
2023-01-30T05:23:06.245Z,11.90
2023-01-30T05:25:35.091Z,12.40
2023-01-30T05:28:03.382Z,11.90
2023-01-30T05:30:32.730Z,12.80
2023-01-30T05:33:00.943Z,12.00
2023-01-30T05:35:29.448Z,12.00
2023-01-30T05:37:59.498Z,12.50
2023-01-30T05:40:28.299Z,14.00
2023-01-30T05:42:56.370Z,16.00
2023-01-30T05:45:25.998Z,15.60
2023-01-30T05:47:58.492Z,14.50
2023-01-30T05:50:29.710Z,11.70
2023-01-30T05:52:59.123Z,12.50
2023-01-30T05:55:27.205Z,14.30
2023-01-30T05:57:55.356Z,17.10
2023-01-30T06:00:48.214Z,13.70
2023-01-30T06:03:16.173Z,14.40
2023-01-30T08:12:30.394Z,13.80
2023-01-30T08:14:58.945Z,15.40
2023-01-30T08:17:27.169Z,11.00
2023-01-30T08:19:55.444Z,13.40
2023-01-30T08:22:23.589Z,13.80
2023-01-30T08:24:51.948Z,12.20
2023-01-30T08:27:20.003Z,17.60
2023-01-30T08:29:48.282Z,13.90
2023-01-30T08:32:16.639Z,13.30
2023-01-30T08:34:45.900Z,15.30
2023-01-30T08:37:14.183Z,13.50
2023-01-30T08:39:42.220Z,11.70
2023-01-30T08:42:10.191Z,14.90
2023-01-30T08:44:38.381Z,15.50
2023-01-30T08:47:06.624Z,14.10
2023-01-30T08:55:56.037Z,12.70
2023-01-30T08:58:23.001Z,12.00
2023-01-30T09:00:49.936Z,16.00
2023-01-30T09:03:17.410Z,12.40
2023-01-30T09:05:44.781Z,12.00
2023-01-30T09:08:11.809Z,13.50
2023-01-30T09:10:39.239Z,13.90
2023-01-30T09:13:26.428Z,13.30
2023-01-30T09:15:54.375Z,12.40
2023-01-30T09:18:21.011Z,12.30
2023-01-30T09:20:48.042Z,13.80
2023-01-30T09:23:15.014Z,13.40
2023-01-30T09:25:45.620Z,12.60
2023-01-30T09:28:13.055Z,14.00
2023-01-30T09:30:39.842Z,12.20
2023-01-30T09:33:09.586Z,14.70
2023-01-30T09:35:36.169Z,13.20
2023-01-30T09:38:04.099Z,13.40
2023-01-30T09:40:33.607Z,13.50
2023-01-30T09:43:19.397Z,16.30
2023-01-30T09:45:49.264Z,15.00
2023-01-30T09:48:21.000Z,14.00
2023-01-30T09:50:48.557Z,14.70
2023-01-30T09:53:29.562Z,13.70
2023-01-30T09:55:57.555Z,14.00
2023-01-30T09:58:24.888Z,12.80
2023-01-30T10:00:54.323Z,12.60
2023-01-30T10:03:38.464Z,13.10
2023-01-30T10:06:13.516Z,12.80
2023-01-30T10:09:00.645Z,13.70
2023-01-30T10:11:48.942Z,19.20
2023-01-30T10:14:40.415Z,16.40
2023-01-30T10:17:40.339Z,39.40
2023-01-30T10:20:25.391Z,14.60
2023-01-30T10:23:12.781Z,16.60
2023-01-30T10:25:47.939Z,13.70
2023-01-30T10:28:23.969Z,15.80
2023-01-30T10:30:52.225Z,15.30
2023-01-30T10:33:32.248Z,15.00
2023-01-30T10:36:06.601Z,16.60
2023-01-30T10:38:39.157Z,14.50
2023-01-30T10:41:30.206Z,9.10
2023-01-30T10:44:17.800Z,13.90
2023-01-30T10:47:22.955Z,13.00
2023-01-30T10:49:52.196Z,12.10
2023-01-30T10:52:26.591Z,24.90
2023-01-30T10:55:05.574Z,12.80
2023-01-30T10:57:58.301Z,12.60
2023-01-30T11:00:24.884Z,13.10
2023-01-30T11:02:51.898Z,12.90
2023-01-30T11:05:21.129Z,12.40
2023-01-30T11:07:47.998Z,15.40
2023-01-30T11:10:25.772Z,13.70
2023-01-30T11:13:00.031Z,15.60
2023-01-30T11:15:48.266Z,13.20
2023-01-30T11:19:01.713Z,13.10
2023-01-30T11:21:05.455Z,13.10
2023-01-30T11:23:34.043Z,11.60
2023-01-30T11:26:11.024Z,12.20
2023-01-30T11:28:40.789Z,15.20
2023-01-30T11:31:39.944Z,12.80
2023-01-30T11:34:15.015Z,15.00
2023-01-30T11:36:41.727Z,15.30
2023-01-30T11:39:12.037Z,12.40
2023-01-30T11:41:58.909Z,13.60
2023-01-30T11:44:26.797Z,14.10
2023-01-30T11:46:53.666Z,15.30
2023-01-30T11:49:46.817Z,26.40
2023-01-30T11:52:08.404Z,18.30
2023-01-30T11:54:38.355Z,15.10
2023-01-30T11:57:06.114Z,15.00
2023-01-30T11:59:38.883Z,13.80
2023-01-30T12:02:14.346Z,14.10
2023-01-30T14:18:28.408Z,16.60
2023-01-30T14:21:20.276Z,19.30
2023-01-30T14:23:58.812Z,21.50
2023-01-30T14:26:48.087Z,15.90
2023-01-30T14:29:37.761Z,19.70
2023-01-30T14:32:10.205Z,21.40
2023-01-30T14:34:39.664Z,25.10
2023-01-30T14:37:44.937Z,20.30
2023-01-30T14:40:21.966Z,22.30
2023-01-30T14:43:12.416Z,19.20
2023-01-30T14:45:50.991Z,21.40
2023-01-30T14:48:29.758Z,19.20
2023-01-30T14:51:16.462Z,22.00
2023-01-30T14:54:04.902Z,20.50
2023-01-30T14:56:50.120Z,18.80
2023-01-30T14:59:37.148Z,18.00
2023-01-30T15:02:14.896Z,20.10
2023-01-30T15:05:08.381Z,17.90
2023-01-30T15:07:43.918Z,17.80
2023-01-30T15:10:37.173Z,17.40
2023-01-30T15:13:24.780Z,17.50
2023-01-30T15:16:11.523Z,19.80
2023-01-30T15:19:02.812Z,20.10
2023-01-30T15:21:46.352Z,21.60
2023-01-30T15:24:35.630Z,17.90
2023-01-30T15:27:11.223Z,17.10
2023-01-30T15:29:52.822Z,18.90
2023-01-30T15:32:22.664Z,15.50
2023-01-30T15:34:55.318Z,17.30
2023-01-30T15:37:30.112Z,18.20
2023-01-30T15:40:18.260Z,16.90
2023-01-30T15:42:54.062Z,16.30
2023-01-30T15:45:27.683Z,21.50
2023-01-30T15:48:20.637Z,23.30
2023-01-30T15:50:49.505Z,21.60
2023-01-30T15:53:17.503Z,22.50
2023-01-30T15:55:52.023Z,23.00
2023-01-30T15:58:22.092Z,28.60
2023-01-30T16:00:56.297Z,25.10
2023-01-30T16:03:31.744Z,27.70
2023-01-30T16:05:59.776Z,20.50
2023-01-30T16:08:33.392Z,21.10
2023-01-30T16:11:02.047Z,19.30
2023-01-30T16:13:30.425Z,18.40
2023-01-30T16:16:08.521Z,20.00
2023-01-30T16:18:39.074Z,18.00
2023-01-30T16:21:17.283Z,19.00
2023-01-30T16:24:06.068Z,21.30
2023-01-30T16:26:35.503Z,22.40
2023-01-30T16:29:06.907Z,24.60
2023-01-30T16:31:38.482Z,30.80
2023-01-30T16:34:06.696Z,27.10
2023-01-30T16:36:41.111Z,23.40
2023-01-30T16:39:43.130Z,21.10
2023-01-30T16:42:26.282Z,22.10
2023-01-30T16:45:16.078Z,28.10
2023-01-30T16:47:44.484Z,25.10
2023-01-30T16:50:21.302Z,21.60
2023-01-30T16:52:53.462Z,19.70
2023-01-30T16:55:23.402Z,20.40
2023-01-30T16:57:55.847Z,19.20
2023-01-30T17:00:26.107Z,24.00
2023-01-30T17:03:08.904Z,23.30
2023-01-30T17:05:41.204Z,20.10
2023-01-30T17:08:31.646Z,16.80
2023-01-30T17:11:00.800Z,16.90
2023-01-30T17:13:41.812Z,16.00
2023-01-30T17:16:22.267Z,18.20
2023-01-30T17:18:54.037Z,15.90
2023-01-30T17:21:23.777Z,17.00
2023-01-30T17:23:55.364Z,18.10
2023-01-30T17:26:23.925Z,19.10
2023-01-30T17:28:52.158Z,16.80
2023-01-30T17:31:21.235Z,18.30
2023-01-30T17:33:49.409Z,16.10
2023-01-30T17:36:23.002Z,18.00
2023-01-30T17:38:52.175Z,18.40
2023-01-30T17:41:30.313Z,17.10
2023-01-30T17:43:58.707Z,20.80
2023-01-30T17:46:49.365Z,17.00
2023-01-30T17:49:20.221Z,19.30
2023-01-30T17:51:48.974Z,19.20
2023-01-30T17:54:17.511Z,20.30
2023-01-30T17:56:47.123Z,18.90
2023-01-30T17:59:17.202Z,18.20
2023-01-30T20:12:09.871Z,18.50
2023-01-30T20:14:38.446Z,19.50
2023-01-30T20:17:07.021Z,19.50
2023-01-30T20:19:35.346Z,21.10
2023-01-30T20:22:08.228Z,21.80
2023-01-30T20:24:37.491Z,20.80
2023-01-30T20:27:05.535Z,19.60
2023-01-30T20:29:34.685Z,19.20
2023-01-30T20:32:05.015Z,21.80
2023-01-30T20:34:33.559Z,20.50
2023-01-30T20:37:01.600Z,20.80
2023-01-30T20:39:30.731Z,21.40
2023-01-30T20:41:58.728Z,20.70
2023-01-30T20:44:27.093Z,23.40
2023-01-30T20:46:56.579Z,22.60
2023-01-30T20:49:24.803Z,20.80
2023-01-30T20:51:54.528Z,20.40
2023-01-30T20:54:23.193Z,21.70
2023-01-30T20:56:52.851Z,22.80
2023-01-30T20:59:27.370Z,19.20
2023-01-30T21:01:55.903Z,21.90
2023-01-30T21:04:24.921Z,21.70
2023-01-30T21:06:53.108Z,22.80
2023-01-30T21:09:23.918Z,23.20
2023-01-30T21:11:53.544Z,22.90
2023-01-30T21:14:22.628Z,22.40
2023-01-30T21:16:51.276Z,22.70
2023-01-30T21:19:20.150Z,23.60
2023-01-30T21:21:51.283Z,24.50
2023-01-30T21:24:24.785Z,24.40
2023-01-30T21:26:53.180Z,26.00
2023-01-30T21:29:23.651Z,24.70
2023-01-30T21:31:52.360Z,25.30
2023-01-30T21:34:20.545Z,23.40
2023-01-30T21:37:08.940Z,25.00
2023-01-30T21:39:57.690Z,24.80
2023-01-30T21:42:45.664Z,21.70
2023-01-30T21:45:13.772Z,27.00
2023-01-30T21:47:42.695Z,27.20
2023-01-30T21:50:11.048Z,25.00
2023-01-30T21:52:40.000Z,27.70
2023-01-30T21:55:09.089Z,27.20
2023-01-30T21:57:37.682Z,24.60
2023-01-30T22:00:06.626Z,27.10
2023-01-30T22:02:35.286Z,24.80
2023-01-30T22:05:03.960Z,25.00
2023-01-30T22:07:32.571Z,24.60
2023-01-30T22:10:02.314Z,26.40
2023-01-30T22:12:32.632Z,24.90
2023-01-30T22:15:01.267Z,24.90
2023-01-30T22:17:29.598Z,26.60
2023-01-30T22:19:57.910Z,23.30
2023-01-30T22:22:26.066Z,25.00
2023-01-30T22:24:54.869Z,23.50
2023-01-30T22:27:23.255Z,24.00
2023-01-30T22:29:51.938Z,25.40
2023-01-30T22:32:23.335Z,25.60
2023-01-30T22:34:51.984Z,23.60
2023-01-30T22:37:19.985Z,23.80
2023-01-30T22:39:48.458Z,24.60
2023-01-30T22:42:16.748Z,25.30
2023-01-30T22:44:44.847Z,26.40
2023-01-30T22:47:12.982Z,24.90
2023-01-30T22:49:45.316Z,26.30
2023-01-30T22:52:13.972Z,23.60
2023-01-30T22:54:42.229Z,25.90
2023-01-30T22:57:10.361Z,24.60
2023-01-30T22:59:38.370Z,24.60
2023-01-30T23:02:10.255Z,25.20
2023-01-30T23:04:39.102Z,24.80
2023-01-30T23:07:07.559Z,24.20
2023-01-30T23:09:35.701Z,23.50
2023-01-30T23:12:22.707Z,26.10
2023-01-30T23:14:51.182Z,22.40
2023-01-30T23:17:38.055Z,23.40
2023-01-30T23:20:07.111Z,25.30
2023-01-30T23:22:35.537Z,23.30
2023-01-30T23:25:03.845Z,23.80
2023-01-30T23:27:32.185Z,22.00
2023-01-30T23:30:00.204Z,21.70
2023-01-30T23:32:28.916Z,23.80
2023-01-30T23:34:57.002Z,22.80
2023-01-30T23:37:44.995Z,22.60
2023-01-30T23:40:13.165Z,20.90
2023-01-30T23:42:41.176Z,22.00
2023-01-30T23:45:09.611Z,21.10
2023-01-30T23:47:38.864Z,25.10
2023-01-30T23:50:07.189Z,21.20
2023-01-30T23:52:35.277Z,22.30
2023-01-30T23:55:03.976Z,21.40
2023-01-30T23:57:32.445Z,22.50
